• Join FlightAware (Why Join?)
  • Login
  • US Flag 
08:39PM EDT


 

Airport Tracker/Info


-or-


 

Live Flight TrackerFlight Track Log ✈ SWA1281 ✈ 19-Jul-2013 ✈ KBWI - KBDL

Flight Track Log - Related Links

Times and Time Zones

All times are in EDT time to prevent confusion due to time zone crossing. See the SWA1281 flight status page for this flight to view local times or setup timezone preferences in your user account.

Time Position Orientation Groundspeed Altitude Reporting Facility
EDT Latitude Longitude Course Direction KTS MPH feet Rate Location/Type
09:34PM 39.1667 -76.7167 282° West 171 197 2,100  Level Potomac TRACON
09:36PM 39.1219 -76.5869 114° Southeast 215 247 7,000 2,520 Climbing Washington Center
09:37PM 39.1311 -76.4772 84° East 261 300 10,400 3,000 Climbing Washington Center
09:38PM 39.1381 -76.3542 86° East 297 342 13,100 3,000 Climbing Washington Center
09:39PM 39.1492 -76.2258 84° East 338 389 16,400 2,940 Climbing Washington Center
09:40PM 39.1658 -76.6279 282° West  Level FlightAware Approximate
09:40PM 39.1686 -76.0950 79° East 361 415 19,000  Level Washington Center
09:41PM 39.1839 -75.9503 82° East 379 436 21,800 2,880 Climbing Washington Center
09:42PM 39.2300 -75.8247 65° Northeast 391 450 24,800 1,560 Climbing Washington Center
09:43PM 39.3114 -75.7258 43° Northeast 378 435 25,000 60 Climbing Washington Center
09:44PM 39.3906 -75.6239 45° Northeast 384 442 25,000  Level Washington Center
09:45PM 39.4719 -75.5189 45° Northeast 390 449 25,000  Level Washington Center
09:46PM 39.5550 -75.4111 45° Northeast 402 463 25,000  Level Washington Center
09:47PM 39.6403 -75.3006 45° Northeast 415 478 25,000  Level Washington Center
09:48PM 39.7158 -75.1969 47° Northeast 413 475 25,000  Level New York Center
09:50PM 39.8039 -75.0647 49° Northeast 425 489 25,000  Level New York Center
09:50PM 39.8853 -74.9506 47° Northeast 430 495 25,000  Level New York Center
09:51PM 39.9622 -74.8386 48° Northeast 425 489 25,000  Level New York Center
09:53PM 40.0431 -74.7242 47° Northeast 430 495 25,000  Level New York Center
09:53PM 40.1200 -74.6064 49° Northeast 423 487 25,000  Level New York Center
09:54PM 40.1889 -74.4744 56° Northeast 423 487 25,000  Level New York Center
09:56PM 40.2553 -74.3472 56° Northeast 434 499 25,000  Level New York Center
09:57PM 40.3239 -74.2175 55° Northeast 434 499 25,000  Level New York Center
09:57PM 40.3922 -74.0872 55° Northeast 434 499 25,000  Level New York Center
09:59PM 40.4583 -73.9569 56° Northeast 434 499 25,000  Level New York Center
10:00PM 40.5756 -73.7378 55° Northeast 438 504 25,000 -360 Level Boston Center
10:01PM 40.6292 -73.6158 60° Northeast 438 504 24,100 -1,440 Descending Boston Center
10:02PM 40.6969 -73.4883 55° Northeast 432 497 22,200 -2,100 Descending Boston Center
10:03PM 40.7586 -73.3608 57° Northeast 420 483 19,900 -1,620 Descending Boston Center
10:04PM 40.8450 -73.2467 45° Northeast 408 470 19,000 -480 Descending Boston Center
10:05PM 40.9289 -73.1489 41° Northeast 395 455 19,000 -60 Level Boston Center
10:06PM 41.0128 -73.0533 41° Northeast 395 455 18,900 -900 Descending Boston Center
10:07PM 41.0778 -72.9742 43° Northeast 395 455 17,200 -2,160 Descending Boston Center
10:08PM 41.1617 -72.8731 42° Northeast 387 445 14,800 -2,460 Descending Boston Center
10:09PM 41.2475 -72.7714 42° Northeast 381 438 12,500 -1,680 Descending Boston Center
10:10PM 41.3475 -72.7306 17° North 349 402 11,300 -960 Descending Boston Center
10:11PM 41.4414 -72.7086 10° North 344 396 10,500 -900 Descending Boston Center
10:12PM 41.5228 -72.6897 10° North 315 362 9,600 -1,140 Descending Boston Center
10:13PM 41.6019 -72.6733 North 296 341 8,300 -1,440 Descending Boston Center
10:14PM 41.6833 -72.6569 North 286 329 6,800 -1,440 Descending Boston Center
10:15PM 41.7625 -72.6378 10° North 274 315 5,300 -1,260 Descending Boston Center
10:16PM 41.8333 -72.6211 10° North 276 318 4,300 -1,080 Descending Boston Center
10:17PM 41.8958 -72.5822 25° Northeast 270 311 3,300 -900 Descending Boston Center
10:18PM 41.9586 -72.5489 22° Northeast 239 275 2,600 -720 Descending Boston Center
10:19PM 41.9919 -72.5797 325° Northwest 160 184 1,900 -720 Descending Boston Center
10:20PM 41.9875 -72.6244 262° West 120 138 1,200 -660 Descending Boston Center
10:21PM 41.9667 -72.6550 227° Southwest 113 130 600 -420 Descending Boston Center
10:22PM 41.9519 -72.6942 243° Southwest 113 130 400 -240 Descending Boston Center